hizlisaat.com alexa rank chart, hizlisaat.com alexa rank daily changes

hizlisaat.com alexa rank chart, hizlisaat.com alexa rank daily changes

hizlisaat.com
Actual rank:
629 778

RANK HISTORY

Date Rank Diff
2018/02/18 629 778 -229 230
2018/02/16 859 008 +570 014
2018/02/15 288 994 -586 218
2018/02/14 875 212 +156 709
2018/02/13 718 503 +259 636
2018/02/12 458 867 +35 926
2018/02/08 422 941 -211 213
2018/02/07 634 154 +108 752
2018/02/06 525 402 -8 398
2018/02/04 533 800 -243 279
2018/02/02 777 079 +136 545
2018/01/30 640 534 +26 305
2018/01/29 614 229 +56 301
2018/01/28 557 928 +1 920
2018/01/27 556 008 +30 678
2018/01/26 525 330 -3 192
2018/01/25 528 522 -1 289
2018/01/24 529 811 +20 823
2018/01/23 508 988 +4 530
2018/01/22 504 458 -5 211
2018/01/21 509 669 +13 248
2018/01/20 496 421 +10 625
2018/01/19 485 796 -827
2018/01/18 486 623 -2 466
2018/01/17 489 089 +3 370
2018/01/16 485 719 +4 337
2018/01/15 481 382 +2 302
2018/01/14 479 080 -4 707
2018/01/13 483 787 +9 723
2018/01/12 474 064 +6 343
2018/01/11 467 721 +8 128
2018/01/10 459 593 -11 477
2018/01/09 471 070 -5 032
2018/01/08 476 102 -867
2018/01/07 476 969 -1 960
2018/01/06 478 929 +9 291
2018/01/05 469 638 +6 635
2018/01/04 463 003 -2 502
2018/01/03 465 505 +12 404
2018/01/02 453 101 +8 372
2018/01/01 444 729 -964
2017/12/31 445 693 -17 784
2017/12/30 463 477 -12 406
2017/12/29 475 883 -43 179
2017/12/28 519 062 +2 795
2017/12/27 516 267 -22 729
2017/12/26 538 996 +26 000
2017/12/25 512 996 +11 676
2017/12/24 501 320 -21 106
2017/12/23 522 426 +2 485
2017/12/22 519 941 -4 151
2017/12/21 524 092 -4 253
2017/12/20 528 345

WIDGET FOR YOUR SITE

DOMAINS WITH THE NEAREST RANK

Domain Rank
sesli.website 629 773
banknn.ru 629 774
svr.gov.ru 629 775
interspeedia.com 629 776
fero-term.hr 629 777
hizlisaat.com 629 778
laptopkey-europe.com 629 779
ableword.net 629 780
zvukovik.by 629 781
cityspb.ru 629 782
god2018dog.ru 629 783

DOMAINS WITH THE NEAREST RANK BY TLD .com

Domain Rank
asialive88.com 629 767
be7id.com 629 768
beragamberita.com 629 769
bolaindo.com 629 771
interspeedia.com 629 776
hizlisaat.com 629 778
laptopkey-europe.com 629 779
monthlyssh.com 629 787
sergiconstance.com 629 794
evsuite.com 629 800
ihgoneteam.com 629 801